Time;durP1;ratioP1;P1;durP2;ratioP2;P2;SDS_P1;SDS_P2;PMS_P1;PMS_P2;Temp;Humidity;BMP_temperature;BMP_pressure;BME280_temperature;BME280_humidity;BME280_pressure;Samples;Min_cycle;Max_cycle;Signal;HPM_P1;HPM_P2
2023/06/16 00:01:09;;;;;;;8.05;5.22;;;13.90;86.60;;;;;;5019944;28;20083;-73
2023/06/16 00:03:35;;;;;;;7.00;4.85;;;13.80;86.60;;;;;;5034161;28;20322;-73
2023/06/16 00:06:14;;;;;;;8.93;5.30;;;13.80;87.00;;;;;;5035381;28;20037;-73
2023/06/16 00:08:44;;;;;;;7.38;4.53;;;13.80;86.80;;;;;;5026136;28;20032;-73
2023/06/16 00:11:10;;;;;;;7.15;4.53;;;13.80;87.00;;;;;;5023221;28;20104;-73
2023/06/16 00:13:36;;;;;;;7.88;4.95;;;13.80;87.10;;;;;;5035418;28;20376;-73
2023/06/16 00:16:01;;;;;;;8.18;4.90;;;13.80;86.80;;;;;;5020964;28;20087;-74
2023/06/16 00:18:28;;;;;;;6.90;5.00;;;13.80;86.90;;;;;;5024504;28;20033;-73
2023/06/16 00:20:54;;;;;;;8.05;5.18;;;13.80;86.70;;;;;;5022860;28;20426;-73
2023/06/16 00:23:21;;;;;;;8.60;5.38;;;13.90;86.50;;;;;;5020827;28;20454;-74
2023/06/16 00:25:47;;;;;;;7.35;4.90;;;13.90;86.40;;;;;;5034515;28;20029;-73
2023/06/16 00:28:13;;;;;;;6.72;4.68;;;13.90;86.60;;;;;;5025543;28;20029;-74
2023/06/16 00:30:38;;;;;;;6.63;4.75;;;13.90;87.00;;;;;;5029145;28;20021;-73
2023/06/16 00:33:05;;;;;;;8.23;5.28;;;13.80;86.90;;;;;;5023975;28;20025;-74
2023/06/16 00:35:31;;;;;;;6.32;4.75;;;13.80;87.10;;;;;;5033989;28;20026;-73
2023/06/16 00:37:56;;;;;;;8.45;5.55;;;13.80;87.20;;;;;;5021505;28;20489;-73
2023/06/16 00:40:22;;;;;;;7.72;5.03;;;13.80;87.30;;;;;;5026873;28;20034;-74
2023/06/16 00:42:47;;;;;;;7.95;5.32;;;13.80;87.00;;;;;;5029593;28;20025;-73
2023/06/16 00:45:13;;;;;;;8.10;5.18;;;13.80;87.00;;;;;;5027764;28;20418;-73
2023/06/16 00:47:39;;;;;;;8.15;5.15;;;13.90;87.20;;;;;;5034610;28;20322;-73
2023/06/16 00:50:07;;;;;;;6.80;4.65;;;13.90;87.00;;;;;;5035485;28;20025;-73
2023/06/16 00:52:37;;;;;;;7.70;4.88;;;13.90;86.60;;;;;;5018480;28;20030;-73
2023/06/16 00:55:03;;;;;;;6.65;4.60;;;14.00;86.30;;;;;;5021673;28;20457;-73
2023/06/16 00:57:29;;;;;;;8.63;4.60;;;14.10;86.30;;;;;;5023779;28;20061;-73
2023/06/16 00:59:55;;;;;;;6.97;5.03;;;14.10;86.30;;;;;;5024056;28;20450;-73
2023/06/16 01:02:21;;;;;;;8.32;5.20;;;14.10;86.30;;;;;;5027617;28;20034;-73
2023/06/16 01:04:47;;;;;;;10.57;5.13;;;14.10;86.80;;;;;;5024295;28;20041;-73
2023/06/16 01:07:29;;;;;;;6.45;5.00;;;14.00;86.80;;;;;;5031346;28;20028;-73
2023/06/16 01:10:00;;;;;;;7.35;4.90;;;13.90;87.30;;;;;;5025832;28;20062;-73
2023/06/16 01:12:37;;;;;;;9.05;5.47;;;13.90;87.30;;;;;;5030702;28;20029;-73
2023/06/16 01:15:07;;;;;;;6.70;4.80;;;13.80;87.50;;;;;;5024176;28;20022;-73
2023/06/16 01:17:37;;;;;;;9.52;5.30;;;13.80;87.60;;;;;;5028093;28;20025;-73
2023/06/16 01:20:17;;;;;;;7.47;4.68;;;13.90;87.50;;;;;;5017009;28;20110;-73
2023/06/16 01:23:14;;;;;;;7.47;4.82;;;13.90;87.50;;;;;;5027981;28;20033;-73
2023/06/16 01:25:43;;;;;;;8.25;4.70;;;13.90;87.40;;;;;;5028015;28;20357;-73
2023/06/16 01:28:10;;;;;;;7.28;5.13;;;13.90;87.30;;;;;;5026395;28;20029;-73
2023/06/16 01:30:42;;;;;;;6.82;5.03;;;13.80;87.90;;;;;;5034330;28;20041;-73
2023/06/16 01:33:11;;;;;;;6.47;4.90;;;13.80;88.40;;;;;;5025839;28;20108;-73
2023/06/16 01:35:38;;;;;;;8.32;5.13;;;13.60;88.90;;;;;;5029438;28;20038;-73
2023/06/16 01:38:05;;;;;;;7.45;5.07;;;13.50;89.50;;;;;;5029944;28;20075;-73
2023/06/16 01:40:31;;;;;;;9.43;5.03;;;13.40;90.40;;;;;;5025754;28;20065;-73
2023/06/16 01:42:58;;;;;;;8.43;5.13;;;13.40;90.50;;;;;;5015414;28;20079;-73
2023/06/16 01:45:25;;;;;;;7.63;5.45;;;13.30;90.40;;;;;;5018129;28;20065;-73
2023/06/16 01:47:51;;;;;;;8.30;5.55;;;13.30;90.40;;;;;;5030050;28;20053;-74
2023/06/16 01:50:16;;;;;;;9.35;5.28;;;13.30;90.50;;;;;;5022082;28;20025;-72
2023/06/16 01:52:42;;;;;;;8.73;5.28;;;13.20;90.40;;;;;;5018632;28;20365;-73
2023/06/16 01:55:08;;;;;;;7.90;5.40;;;13.10;90.80;;;;;;5026568;28;20026;-73
2023/06/16 01:57:34;;;;;;;8.65;5.70;;;13.00;91.60;;;;;;5013626;28;20112;-73
2023/06/16 02:00:16;;;;;;;8.05;5.30;;;12.90;92.10;;;;;;5017940;28;20045;-73
2023/06/16 02:03:03;;;;;;;7.68;5.47;;;12.80;92.50;;;;;;5017709;28;20033;-73
2023/06/16 02:05:31;;;;;;;7.43;5.68;;;12.70;92.60;;;;;;5026678;28;20033;-73
2023/06/16 02:07:59;;;;;;;12.50;6.03;;;12.80;92.50;;;;;;5018356;28;20018;-73
2023/06/16 02:10:25;;;;;;;8.05;5.75;;;12.90;92.30;;;;;;5019578;28;20386;-73
2023/06/16 02:12:55;;;;;;;8.00;5.72;;;12.90;91.80;;;;;;5015488;28;20034;-72
2023/06/16 02:15:21;;;;;;;9.20;5.07;;;13.10;91.40;;;;;;5027753;28;20036;-73
2023/06/16 02:17:47;;;;;;;8.70;5.78;;;13.20;90.70;;;;;;5019571;28;20026;-73
2023/06/16 02:20:13;;;;;;;7.32;5.55;;;13.30;90.60;;;;;;5017256;28;20080;-73
2023/06/16 02:22:39;;;;;;;7.13;5.18;;;13.30;90.70;;;;;;5015857;28;20033;-73
2023/06/16 02:25:05;;;;;;;8.65;5.97;;;13.30;90.80;;;;;;5027483;28;20369;-74
2023/06/16 02:27:31;;;;;;;7.35;5.43;;;13.40;90.80;;;;;;5031158;28;20430;-74
2023/06/16 02:29:56;;;;;;;10.20;5.60;;;13.40;90.60;;;;;;5028610;28;20026;-73
2023/06/16 02:32:22;;;;;;;9.23;5.30;;;13.40;90.50;;;;;;5020169;28;20026;-74
2023/06/16 02:34:48;;;;;;;7.50;5.20;;;13.40;90.40;;;;;;5026848;28;20042;-74
2023/06/16 02:37:14;;;;;;;7.82;5.38;;;13.40;90.50;;;;;;5024064;28;20036;-73
2023/06/16 02:39:40;;;;;;;7.78;5.30;;;13.40;90.50;;;;;;5021896;28;20426;-74
2023/06/16 02:42:07;;;;;;;8.95;5.65;;;13.40;90.70;;;;;;5019425;28;20033;-74
2023/06/16 02:44:33;;;;;;;7.72;5.70;;;13.30;91.20;;;;;;5029193;28;20026;-73
2023/06/16 02:47:00;;;;;;;9.45;5.38;;;13.30;91.50;;;;;;5033137;28;20030;-73
2023/06/16 02:49:26;;;;;;;8.25;6.15;;;13.20;91.70;;;;;;5034696;28;20049;-73
2023/06/16 02:51:51;;;;;;;7.13;5.57;;;13.10;91.70;;;;;;5018892;28;20026;-74
2023/06/16 02:54:17;;;;;;;7.07;5.50;;;13.10;91.70;;;;;;5023246;28;20033;-74
2023/06/16 02:56:42;;;;;;;8.68;6.47;;;13.10;92.10;;;;;;5025814;28;20036;-73
2023/06/16 02:59:10;;;;;;;8.70;6.10;;;13.00;92.70;;;;;;5029153;28;20116;-73
2023/06/16 03:01:36;;;;;;;8.57;6.43;;;12.80;93.10;;;;;;5032643;28;20033;-74
2023/06/16 03:04:03;;;;;;;7.85;6.20;;;12.60;93.50;;;;;;5023901;28;20036;-73
2023/06/16 03:06:29;;;;;;;9.45;6.10;;;12.40;94.00;;;;;;5024546;28;20446;-73
2023/06/16 03:08:58;;;;;;;9.45;5.78;;;12.30;94.30;;;;;;5026523;28;20029;-73
2023/06/16 03:11:23;;;;;;;8.27;6.60;;;12.20;94.70;;;;;;5031193;28;20028;-73
2023/06/16 03:13:49;;;;;;;8.15;6.53;;;12.10;95.00;;;;;;5029635;28;20025;-73
2023/06/16 03:16:16;;;;;;;8.40;6.50;;;12.10;95.00;;;;;;5026696;28;20095;-73
2023/06/16 03:18:42;;;;;;;8.13;6.30;;;12.20;94.90;;;;;;5033544;28;20101;-73
2023/06/16 03:21:08;;;;;;;8.32;6.32;;;12.20;94.70;;;;;;5042375;28;20068;-73
2023/06/16 03:23:34;;;;;;;9.23;7.07;;;12.30;94.90;;;;;;5032312;28;20037;-73
2023/06/16 03:25:59;;;;;;;8.90;6.45;;;12.20;95.10;;;;;;5043465;28;20431;-73
2023/06/16 03:28:25;;;;;;;11.55;7.15;;;12.10;95.30;;;;;;5035614;28;20056;-74
2023/06/16 03:30:53;;;;;;;10.75;6.75;;;12.00;95.40;;;;;;5035319;28;20037;-73
2023/06/16 03:33:20;;;;;;;10.95;6.90;;;12.00;95.50;;;;;;5020280;28;20120;-73
2023/06/16 03:35:48;;;;;;;8.38;6.07;;;12.10;95.30;;;;;;5023106;28;20029;-73
2023/06/16 03:38:13;;;;;;;8.75;6.63;;;12.10;95.10;;;;;;5024110;28;20045;-74
2023/06/16 03:40:39;;;;;;;9.75;6.53;;;12.10;95.10;;;;;;5025688;28;20326;-73
2023/06/16 03:43:05;;;;;;;9.20;6.38;;;12.10;95.20;;;;;;5024596;28;20075;-73
2023/06/16 03:45:30;;;;;;;10.68;6.75;;;12.10;95.20;;;;;;5028512;28;20041;-73
2023/06/16 03:47:56;;;;;;;9.13;6.32;;;12.20;95.00;;;;;;5034804;28;20400;-73
2023/06/16 03:50:21;;;;;;;8.60;6.60;;;12.10;95.10;;;;;;5023896;28;20044;-73
2023/06/16 03:52:53;;;;;;;11.05;6.85;;;12.10;95.30;;;;;;5036595;28;20025;-73
2023/06/16 03:55:19;;;;;;;8.55;6.78;;;12.00;95.50;;;;;;5038461;28;20029;-73
2023/06/16 03:57:44;;;;;;;10.25;6.70;;;12.00;95.70;;;;;;5025036;28;20134;-73
2023/06/16 04:00:10;;;;;;;10.93;7.20;;;12.00;95.70;;;;;;5031109;28;20406;-73
2023/06/16 04:02:37;;;;;;;12.32;7.90;;;12.00;95.60;;;;;;5023286;28;20084;-73
2023/06/16 04:05:03;;;;;;;8.07;6.60;;;12.00;95.70;;;;;;5032453;28;20105;-73
2023/06/16 04:07:30;;;;;;;9.35;6.75;;;12.00;95.60;;;;;;5030690;28;20353;-73
2023/06/16 04:09:56;;;;;;;11.10;6.72;;;12.00;95.70;;;;;;5033335;28;20033;-73
2023/06/16 04:12:21;;;;;;;8.63;6.75;;;12.00;95.70;;;;;;5036724;28;20176;-73
2023/06/16 04:14:47;;;;;;;8.77;6.85;;;12.10;95.70;;;;;;5020809;28;20326;-73
2023/06/16 04:17:12;;;;;;;10.68;6.70;;;12.20;95.60;;;;;;5021933;28;20033;-73
2023/06/16 04:19:38;;;;;;;9.52;7.10;;;12.20;95.60;;;;;;5018634;28;20034;-73
2023/06/16 04:22:04;;;;;;;9.85;6.57;;;12.30;95.60;;;;;;5024211;28;20029;-73
2023/06/16 04:24:30;;;;;;;8.75;6.85;;;12.30;95.60;;;;;;5030893;28;20028;-73
2023/06/16 04:26:58;;;;;;;12.15;6.47;;;12.30;95.50;;;;;;5034734;28;20033;-73
2023/06/16 04:29:25;;;;;;;14.07;7.63;;;12.40;95.60;;;;;;5024093;28;20407;-73
2023/06/16 04:31:51;;;;;;;10.27;6.95;;;12.30;95.70;;;;;;5033942;28;20025;-73
2023/06/16 04:34:18;;;;;;;12.05;7.05;;;12.30;95.80;;;;;;5023160;28;20065;-73
2023/06/16 04:36:44;;;;;;;11.55;6.75;;;12.30;95.80;;;;;;5020470;28;20032;-73
2023/06/16 04:39:11;;;;;;;10.98;6.57;;;12.30;95.90;;;;;;5021091;28;20112;-73
2023/06/16 04:41:37;;;;;;;12.50;6.60;;;12.40;95.70;;;;;;5024838;28;20091;-73
2023/06/16 04:44:03;;;;;;;12.10;6.80;;;12.60;94.90;;;;;;5017030;28;20410;-73
2023/06/16 04:46:29;;;;;;;9.20;6.72;;;12.70;94.90;;;;;;5016262;28;20026;-73
2023/06/16 04:48:54;;;;;;;9.52;6.90;;;12.80;94.80;;;;;;5019078;28;20026;-73
2023/06/16 04:51:20;;;;;;;9.13;6.57;;;12.80;95.20;;;;;;5028580;28;20034;-73
2023/06/16 04:53:49;;;;;;;13.57;6.78;;;12.80;95.30;;;;;;5030930;28;20034;-73
2023/06/16 04:56:14;;;;;;;15.13;7.25;;;12.80;95.30;;;;;;5023414;28;20041;-72
2023/06/16 04:58:41;;;;;;;13.07;6.10;;;12.80;95.30;;;;;;5016651;28;20026;-73
2023/06/16 05:01:07;;;;;;;11.30;6.35;;;12.90;95.00;;;;;;5021412;28;20029;-72
2023/06/16 05:03:32;;;;;;;13.80;6.57;;;13.00;95.10;;;;;;5030561;28;20326;-73
2023/06/16 05:05:59;;;;;;;9.77;5.78;;;13.10;94.70;;;;;;5031241;28;20112;-72
2023/06/16 05:08:24;;;;;;;11.15;5.60;;;13.20;94.30;;;;;;5021604;28;20087;-72
2023/06/16 05:10:50;;;;;;;8.68;5.50;;;13.40;93.80;;;;;;5023855;28;20037;-73
2023/06/16 05:13:16;;;;;;;8.02;5.47;;;13.50;93.80;;;;;;5029499;28;20310;-73
2023/06/16 05:15:41;;;;;;;9.27;5.40;;;13.60;93.30;;;;;;5020798;28;20041;-73
2023/06/16 05:18:07;;;;;;;10.93;5.65;;;13.80;92.70;;;;;;5025486;28;20112;-73
2023/06/16 05:20:32;;;;;;;18.25;6.65;;;14.00;93.00;;;;;;5039120;28;20064;-73
2023/06/16 05:22:58;;;;;;;10.00;5.85;;;14.10;93.30;;;;;;5025402;28;20033;-73
2023/06/16 05:25:24;;;;;;;7.90;5.28;;;14.20;93.20;;;;;;5033373;28;20156;-73
2023/06/16 05:27:52;;;;;;;13.48;5.88;;;14.40;92.50;;;;;;5034669;28;20135;-73
2023/06/16 05:30:18;;;;;;;10.90;5.97;;;14.50;92.50;;;;;;5021718;28;20044;-73
2023/06/16 05:32:43;;;;;;;14.05;5.32;;;14.70;92.00;;;;;;5017105;28;20026;-73
2023/06/16 05:35:09;;;;;;;7.32;5.03;;;14.80;91.70;;;;;;5018796;28;20037;-73
2023/06/16 05:37:35;;;;;;;8.30;5.10;;;14.90;90.50;;;;;;5027385;28;20029;-73
2023/06/16 05:40:00;;;;;;;9.15;5.38;;;15.00;89.50;;;;;;5023950;28;20433;-74
2023/06/16 05:42:26;;;;;;;11.15;5.90;;;15.20;89.00;;;;;;5013601;28;20073;-73
2023/06/16 05:44:51;;;;;;;8.32;5.25;;;15.40;89.10;;;;;;5026354;28;20167;-73
2023/06/16 05:47:17;;;;;;;8.27;5.03;;;15.60;89.10;;;;;;5020183;28;20049;-73
2023/06/16 05:49:43;;;;;;;9.20;5.60;;;15.80;89.10;;;;;;5029041;28;20032;-73
2023/06/16 05:52:08;;;;;;;8.05;5.68;;;16.00;89.30;;;;;;5022714;28;20022;-73
2023/06/16 05:54:37;;;;;;;9.57;5.00;;;16.10;87.40;;;;;;5028450;28;20037;-73
2023/06/16 05:57:03;;;;;;;10.70;5.35;;;16.30;81.80;;;;;;5021525;28;20418;-73
2023/06/16 05:59:29;;;;;;;12.82;5.32;;;16.60;86.50;;;;;;5021235;28;20477;-73
2023/06/16 06:01:55;;;;;;;8.60;5.55;;;16.70;86.90;;;;;;5014988;28;20108;-73
2023/06/16 06:04:30;;;;;;;9.63;5.47;;;16.90;84.80;;;;;;5016046;28;20102;-73
2023/06/16 06:06:57;;;;;;;7.50;5.32;;;17.00;78.80;;;;;;5017868;28;20040;-73
2023/06/16 06:09:23;;;;;;;8.23;5.28;;;17.30;79.10;;;;;;5022190;28;20049;-73
2023/06/16 06:11:50;;;;;;;9.40;4.80;;;17.50;79.00;;;;;;5014594;28;20068;-74
2023/06/16 06:14:15;;;;;;;9.25;4.85;;;17.60;77.40;;;;;;5016120;28;20084;-74
2023/06/16 06:16:41;;;;;;;7.55;4.80;;;17.80;77.70;;;;;;5021202;28;20030;-73
2023/06/16 06:19:06;;;;;;;8.30;5.30;;;18.00;76.90;;;;;;5025648;28;20386;-74
2023/06/16 06:21:33;;;;;;;10.85;5.38;;;18.10;76.20;;;;;;5035756;28;20037;-73
2023/06/16 06:24:00;;;;;;;8.48;5.10;;;18.20;75.70;;;;;;5022231;28;20029;-74
2023/06/16 06:26:25;;;;;;;9.93;5.28;;;18.30;75.60;;;;;;5026895;28;20033;-74
2023/06/16 06:28:51;;;;;;;7.72;4.88;;;18.40;74.20;;;;;;5034656;28;20017;-74
2023/06/16 06:31:16;;;;;;;8.77;4.93;;;18.50;74.30;;;;;;5040111;28;20033;-74
2023/06/16 06:33:42;;;;;;;9.13;5.93;;;18.70;73.20;;;;;;5020425;28;20054;-74
2023/06/16 06:36:09;;;;;;;8.13;5.72;;;18.70;73.40;;;;;;5053633;28;20035;-74
2023/06/16 06:38:35;;;;;;;10.93;5.35;;;18.70;72.80;;;;;;5017883;28;20022;-74
2023/06/16 06:41:01;;;;;;;10.32;5.20;;;18.70;73.30;;;;;;5026738;28;20444;-73
2023/06/16 06:43:27;;;;;;;8.48;5.35;;;18.70;73.60;;;;;;5016632;28;20113;-73
2023/06/16 06:45:53;;;;;;;7.35;5.03;;;18.80;72.90;;;;;;5022571;28;20104;-74
2023/06/16 06:48:18;;;;;;;8.63;5.35;;;18.90;73.70;;;;;;5028395;28;20030;-74
2023/06/16 06:50:44;;;;;;;7.78;5.32;;;19.00;73.30;;;;;;5035340;28;20037;-74
2023/06/16 06:53:10;;;;;;;7.50;5.25;;;19.10;72.30;;;;;;5016252;28;20072;-74
2023/06/16 06:55:35;;;;;;;8.95;5.40;;;19.10;71.30;;;;;;5015601;28;20105;-74
2023/06/16 06:58:01;;;;;;;10.63;5.38;;;19.20;71.10;;;;;;5023627;28;20026;-74
2023/06/16 07:00:26;;;;;;;6.85;5.20;;;19.20;71.90;;;;;;5018132;28;20322;-74
2023/06/16 07:02:52;;;;;;;7.82;5.07;;;19.30;73.50;;;;;;5015499;28;20084;-74
2023/06/16 07:05:18;;;;;;;8.73;5.05;;;19.50;71.90;;;;;;5033163;28;20029;-74
2023/06/16 07:07:43;;;;;;;8.32;5.32;;;19.60;71.10;;;;;;5033737;28;20116;-74
2023/06/16 07:10:10;;;;;;;7.35;4.85;;;19.60;71.10;;;;;;5031259;28;20025;-74
2023/06/16 07:12:36;;;;;;;9.50;5.47;;;19.70;71.30;;;;;;5018139;28;20092;-74
2023/06/16 07:15:02;;;;;;;6.68;5.10;;;19.80;71.30;;;;;;5019018;28;20022;-74
2023/06/16 07:17:27;;;;;;;9.57;5.28;;;19.80;70.50;;;;;;5026044;28;20022;-74
2023/06/16 07:19:53;;;;;;;8.52;5.22;;;19.90;71.20;;;;;;5019749;28;20030;-74
2023/06/16 07:22:20;;;;;;;9.55;5.20;;;20.10;70.70;;;;;;5023338;28;20029;-74
2023/06/16 07:24:45;;;;;;;8.73;5.13;;;20.50;69.90;;;;;;5033998;28;20030;-74
2023/06/16 07:27:11;;;;;;;9.65;5.18;;;21.30;68.40;;;;;;5038565;28;20044;-74
2023/06/16 07:29:37;;;;;;;9.13;5.63;;;22.10;66.50;;;;;;5035771;28;20087;-74
2023/06/16 07:32:03;;;;;;;8.68;5.18;;;22.60;65.00;;;;;;5028323;28;20022;-74
2023/06/16 07:34:29;;;;;;;7.30;4.57;;;22.70;63.70;;;;;;5018437;28;20038;-83
2023/06/16 07:36:54;;;;;;;9.30;5.07;;;22.80;64.40;;;;;;5031847;28;20045;-75
2023/06/16 07:39:21;;;;;;;10.00;5.25;;;22.40;66.30;;;;;;5018597;28;20030;-76
2023/06/16 07:41:47;;;;;;;12.57;4.80;;;22.60;65.90;;;;;;5020480;28;20026;-75
2023/06/16 07:44:12;;;;;;;9.43;4.90;;;23.00;66.00;;;;;;5037452;28;20091;-76
2023/06/16 07:46:39;;;;;;;7.10;4.97;;;23.60;62.30;;;;;;5037056;28;20026;-76
2023/06/16 07:49:05;;;;;;;5.95;4.22;;;23.50;63.60;;;;;;5031248;28;20026;-75
2023/06/16 07:51:30;;;;;;;8.13;4.45;;;23.60;63.80;;;;;;5018241;28;20030;-75
2023/06/16 07:53:56;;;;;;;9.93;4.30;;;23.80;61.30;;;;;;5023846;28;20022;-75
2023/06/16 07:56:21;;;;;;;8.48;4.30;;;24.10;61.10;;;;;;5029934;28;20034;-75
2023/06/16 07:58:47;;;;;;;8.48;4.40;;;24.30;61.60;;;;;;5018351;28;20034;-75
2023/06/16 08:01:13;;;;;;;6.53;4.35;;;24.60;60.40;;;;;;5021641;28;20057;-73
2023/06/16 08:03:38;;;;;;;6.28;4.65;;;24.80;61.00;;;;;;5028468;28;20042;-73
2023/06/16 08:06:05;;;;;;;6.95;4.25;;;25.60;59.30;;;;;;5037533;28;20422;-72
2023/06/16 08:08:32;;;;;;;6.65;4.32;;;25.30;59.30;;;;;;5032598;28;20061;-72
2023/06/16 08:10:58;;;;;;;8.45;4.90;;;24.80;59.90;;;;;;5037762;28;20048;-72
2023/06/16 08:13:24;;;;;;;8.40;4.55;;;24.80;59.70;;;;;;5018822;28;20076;-75
2023/06/16 08:15:50;;;;;;;7.68;4.45;;;25.10;59.80;;;;;;5021206;28;20033;-75
2023/06/16 08:18:17;;;;;;;6.13;4.10;;;26.00;58.00;;;;;;5022438;28;20033;-74
2023/06/16 08:20:45;;;;;;;6.70;3.97;;;26.20;57.40;;;;;;5035715;28;20029;-75
2023/06/16 08:23:10;;;;;;;5.70;4.05;;;26.30;57.20;;;;;;5017450;28;20026;-75
2023/06/16 08:25:36;;;;;;;6.68;4.20;;;26.00;58.90;;;;;;5035553;28;20033;-74
2023/06/16 08:28:03;;;;;;;7.28;4.20;;;26.10;56.90;;;;;;5022927;28;20040;-74
2023/06/16 08:30:28;;;;;;;6.47;4.13;;;26.20;57.40;;;;;;5026525;28;20029;-74
2023/06/16 08:32:54;;;;;;;7.43;4.13;;;26.60;57.40;;;;;;5037168;28;20097;-74
2023/06/16 08:35:20;;;;;;;7.78;4.03;;;27.20;56.90;;;;;;5034580;28;20055;-74
2023/06/16 08:37:48;;;;;;;5.68;3.60;;;27.10;53.60;;;;;;5016912;28;20034;-74
2023/06/16 08:40:14;;;;;;;6.57;3.90;;;26.30;54.50;;;;;;5029101;28;20025;-74
2023/06/16 08:42:44;;;;;;;5.93;3.72;;;26.60;55.80;;;;;;5032612;28;20084;-74
2023/06/16 08:45:11;;;;;;;8.82;3.88;;;26.50;55.30;;;;;;5022520;28;20084;-74
2023/06/16 08:47:39;;;;;;;6.75;3.88;;;26.50;55.60;;;;;;5035123;28;20033;-73
2023/06/16 08:50:07;;;;;;;6.97;3.70;;;26.40;56.50;;;;;;5036791;28;20033;-76
2023/06/16 08:52:40;;;;;;;8.77;4.03;;;26.50;55.20;;;;;;5023004;28;20056;-75
2023/06/16 08:55:15;;;;;;;6.75;3.97;;;26.80;53.10;;;;;;5025994;28;20022;-75
2023/06/16 08:57:49;;;;;;;7.78;4.00;;;27.10;54.60;;;;;;5016995;28;20076;-75
2023/06/16 09:00:17;;;;;;;7.53;3.67;;;27.90;50.20;;;;;;5019584;28;20341;-75
2023/06/16 09:02:48;;;;;;;8.20;3.97;;;28.00;50.20;;;;;;5017008;28;20026;-75
2023/06/16 09:05:15;;;;;;;5.18;3.45;;;28.20;48.50;;;;;;5016903;28;20261;-75
2023/06/16 09:07:41;;;;;;;7.63;3.53;;;28.40;49.40;;;;;;5017269;28;20391;-76
2023/06/16 09:10:10;;;;;;;9.68;4.05;;;28.20;49.30;;;;;;5032717;28;20100;-73
2023/06/16 09:12:35;;;;;;;8.40;3.60;;;28.40;50.60;;;;;;5029116;28;20026;-75
2023/06/16 09:15:06;;;;;;;6.15;3.50;;;28.80;46.90;;;;;;5031112;28;20108;-75
2023/06/16 09:17:33;;;;;;;6.45;3.88;;;28.60;47.30;;;;;;5036503;28;20033;-74
2023/06/16 09:20:00;;;;;;;13.00;3.80;;;27.90;47.50;;;;;;5036569;28;20127;-75
2023/06/16 09:22:29;;;;;;;9.52;3.80;;;27.80;48.00;;;;;;5020543;28;20037;-76
2023/06/16 09:25:00;;;;;;;10.90;3.67;;;27.80;47.80;;;;;;5028378;28;20330;-73
2023/06/16 09:27:43;;;;;;;6.53;3.70;;;28.80;48.80;;;;;;5016528;28;20042;-74
2023/06/16 09:30:14;;;;;;;6.38;3.40;;;29.40;46.80;;;;;;5016877;28;20030;-75
2023/06/16 09:32:41;;;;;;;5.47;3.20;;;29.40;47.30;;;;;;5019856;28;20018;-75
2023/06/16 09:35:42;;;;;;;9.73;3.67;;;29.00;47.00;;;;;;5022135;28;20041;-74
2023/06/16 09:38:10;;;;;;;6.90;3.58;;;27.40;48.50;;;;;;5032467;28;20048;-75
2023/06/16 09:40:35;;;;;;;6.43;3.92;;;27.20;48.90;;;;;;5028611;28;20079;-74
2023/06/16 09:43:07;;;;;;;8.27;4.00;;;27.40;48.90;;;;;;5023860;28;20437;-76
2023/06/16 09:45:33;;;;;;;13.52;4.13;;;27.30;48.60;;;;;;5016339;28;20030;-75
2023/06/16 09:48:04;;;;;;;6.88;3.58;;;27.40;49.50;;;;;;5022639;28;20083;-75
2023/06/16 09:50:30;;;;;;;6.57;3.75;;;28.90;47.20;;;;;;5019721;28;20026;-74
2023/06/16 09:52:58;;;;;;;8.10;3.45;;;30.20;44.90;;;;;;5030279;28;20035;-75
2023/06/16 09:55:27;;;;;;;7.30;3.70;;;31.00;44.00;;;;;;5018816;28;20022;-75
2023/06/16 09:57:53;;;;;;;7.72;3.72;;;31.00;44.30;;;;;;5034241;28;20060;-75
2023/06/16 10:00:19;;;;;;;6.28;3.65;;;30.30;45.60;;;;;;5034237;28;20038;-75
2023/06/16 10:02:47;;;;;;;7.85;4.20;;;29.60;46.10;;;;;;5022650;28;20041;-75
2023/06/16 10:05:18;;;;;;;10.75;4.70;;;28.60;47.70;;;;;;5016463;28;20026;-75
2023/06/16 10:07:56;;;;;;;7.78;4.50;;;26.50;50.90;;;;;;5014651;28;20030;-75
2023/06/16 10:10:28;;;;;;;9.75;4.18;;;24.90;53.90;;;;;;5020126;28;20108;-74
2023/06/16 10:12:54;;;;;;;7.82;4.10;;;24.20;55.80;;;;;;5022004;28;20033;-74
2023/06/16 10:15:30;;;;;;;10.40;4.63;;;23.70;56.00;;;;;;5017014;28;20033;-74
2023/06/16 10:18:03;;;;;;;6.80;4.43;;;23.70;55.70;;;;;;5015741;28;20530;-74
2023/06/16 10:20:32;;;;;;;10.50;3.95;;;24.00;55.00;;;;;;5017058;28;20423;-74
2023/06/16 10:22:59;;;;;;;7.00;3.72;;;25.60;54.40;;;;;;5027250;28;20051;-74
2023/06/16 10:25:25;;;;;;;8.32;4.15;;;27.70;51.80;;;;;;5028103;28;20350;-74
2023/06/16 10:27:52;;;;;;;7.38;3.83;;;28.80;48.20;;;;;;5029619;28;20048;-74
2023/06/16 10:30:19;;;;;;;7.10;3.90;;;29.10;46.30;;;;;;5015845;28;20030;-74
2023/06/16 10:32:49;;;;;;;6.93;4.00;;;28.90;45.50;;;;;;5017108;28;20046;-75
2023/06/16 10:35:17;;;;;;;9.07;3.80;;;28.20;46.40;;;;;;5014692;28;20046;-74
2023/06/16 10:37:42;;;;;;;6.70;4.22;;;27.10;48.50;;;;;;5014033;28;20038;-75
2023/06/16 10:40:12;;;;;;;10.02;4.50;;;25.60;49.00;;;;;;5016903;28;20056;-74
2023/06/16 10:42:40;;;;;;;7.53;4.10;;;25.70;50.50;;;;;;5016872;28;20069;-71
2023/06/16 10:45:28;;;;;;;8.30;4.28;;;26.50;49.30;;;;;;5027206;28;20330;-73
2023/06/16 10:48:10;;;;;;;9.02;3.92;;;27.20;48.60;;;;;;5039456;28;20032;-71
2023/06/16 10:50:38;;;;;;;8.38;3.97;;;27.70;48.50;;;;;;5025032;28;20173;-72
2023/06/16 10:53:16;;;;;;;8.25;3.70;;;27.30;48.60;;;;;;5021222;28;20033;-72
2023/06/16 10:55:44;;;;;;;10.07;4.07;;;26.70;51.90;;;;;;5019463;28;20423;-72
2023/06/16 10:58:16;;;;;;;8.90;4.38;;;26.90;50.80;;;;;;5033770;28;20033;-71
2023/06/16 11:01:04;;;;;;;7.97;4.97;;;26.80;50.30;;;;;;5019139;28;20037;-72
2023/06/16 11:03:43;;;;;;;7.88;4.20;;;25.40;52.30;;;;;;5019099;28;20053;-72
2023/06/16 11:06:12;;;;;;;7.18;4.38;;;24.30;54.00;;;;;;5019323;28;20034;-71
2023/06/16 11:08:52;;;;;;;10.10;4.82;;;23.90;54.80;;;;;;5021700;28;20033;-74
2023/06/16 11:11:18;;;;;;;9.45;4.65;;;23.90;54.60;;;;;;5035552;28;20418;-72
2023/06/16 11:13:44;;;;;;;7.55;4.47;;;23.80;55.30;;;;;;5038852;28;20037;-72
2023/06/16 11:16:10;;;;;;;9.23;4.65;;;23.70;55.40;;;;;;5029305;28;20030;-72
2023/06/16 11:18:36;;;;;;;9.18;4.25;;;23.70;55.70;;;;;;5033804;28;20029;-72
2023/06/16 11:21:07;;;;;;;7.60;4.30;;;23.90;55.00;;;;;;5034216;28;20037;-73
2023/06/16 11:23:34;;;;;;;8.60;3.85;;;24.90;53.50;;;;;;5017692;28;20434;-72
2023/06/16 11:26:10;;;;;;;7.65;4.20;;;25.60;52.20;;;;;;5018993;28;20081;-74
2023/06/16 11:28:37;;;;;;;6.63;4.00;;;25.70;50.50;;;;;;5022814;28;20060;-72
2023/06/16 11:31:08;;;;;;;9.23;4.20;;;25.40;52.00;;;;;;5031719;28;20033;-73
2023/06/16 11:33:34;;;;;;;8.07;4.10;;;25.30;51.90;;;;;;5019937;28;20041;-72
2023/06/16 11:36:20;;;;;;;7.53;4.18;;;25.40;51.40;;;;;;5038394;28;20033;-72
2023/06/16 11:38:49;;;;;;;9.35;4.85;;;25.00;51.50;;;;;;5037008;28;20032;-72
2023/06/16 11:41:20;;;;;;;9.15;5.03;;;24.50;52.80;;;;;;5036823;28;20022;-72
2023/06/16 11:43:47;;;;;;;6.63;4.70;;;24.40;52.80;;;;;;5035951;28;20029;-72
2023/06/16 11:46:16;;;;;;;9.40;4.50;;;24.50;53.30;;;;;;5023930;28;20049;-73
2023/06/16 11:48:42;;;;;;;9.10;5.13;;;24.80;53.00;;;;;;5018582;28;20105;-72
2023/06/16 11:51:07;;;;;;;7.28;5.05;;;24.40;51.40;;;;;;5021661;28;20100;-72
2023/06/16 11:53:34;;;;;;;11.15;5.32;;;24.50;52.20;;;;;;5036544;28;20041;-72
2023/06/16 11:56:00;;;;;;;8.70;4.88;;;24.50;51.60;;;;;;5038108;28;20037;-73
2023/06/16 11:58:29;;;;;;;9.43;4.05;;;24.10;52.10;;;;;;5037296;28;20101;-72
2023/06/16 12:01:00;;;;;;;7.15;4.32;;;23.90;52.60;;;;;;5025798;28;20026;-72
2023/06/16 12:03:31;;;;;;;8.20;4.05;;;23.80;53.30;;;;;;5033713;28;20322;-72
2023/06/16 12:05:57;;;;;;;6.82;4.20;;;23.50;53.70;;;;;;5031054;28;20049;-73
2023/06/16 12:08:45;;;;;;;9.40;4.30;;;24.00;54.10;;;;;;5016837;28;20084;-73
2023/06/16 12:11:37;;;;;;;6.32;3.53;;;25.30;50.60;;;;;;5018070;28;20080;-72
2023/06/16 12:14:06;;;;;;;8.20;3.90;;;26.70;49.70;;;;;;5031069;28;20104;-72
2023/06/16 12:16:31;;;;;;;6.93;4.00;;;28.00;48.70;;;;;;5037565;28;20126;-72
2023/06/16 12:18:59;;;;;;;9.43;4.22;;;28.90;46.30;;;;;;5029454;28;20070;-72
2023/06/16 12:21:28;;;;;;;11.30;4.28;;;29.70;45.70;;;;;;5018495;28;20033;-72
2023/06/16 12:23:57;;;;;;;7.03;3.90;;;29.60;43.10;;;;;;5016562;28;20319;-71
2023/06/16 12:26:46;;;;;;;6.95;3.72;;;29.30;43.90;;;;;;5019208;28;20030;-73
2023/06/16 12:29:16;;;;;;;7.85;3.78;;;29.70;43.50;;;;;;5036707;28;20552;-72
2023/06/16 12:31:54;;;;;;;8.88;4.00;;;29.60;44.40;;;;;;5037706;28;20440;-72
2023/06/16 12:34:32;;;;;;;7.82;3.90;;;29.20;44.90;;;;;;5019713;28;20117;-73
2023/06/16 12:37:10;;;;;;;10.05;4.10;;;28.10;46.50;;;;;;5017004;28;20030;-72
2023/06/16 12:39:37;;;;;;;8.35;4.57;;;27.10;48.80;;;;;;5031536;28;20087;-72
2023/06/16 12:42:09;;;;;;;7.88;4.00;;;27.90;48.20;;;;;;5035711;28;20028;-73
2023/06/16 12:44:42;;;;;;;7.65;3.90;;;28.60;46.20;;;;;;5033106;28;20071;-73
2023/06/16 12:47:07;;;;;;;8.83;4.50;;;29.00;45.60;;;;;;5031156;28;20084;-72
2023/06/16 12:49:33;;;;;;;7.72;3.78;;;29.50;44.40;;;;;;5027338;28;20616;-73